Time;durP1;ratioP1;P1;durP2;ratioP2;P2;SDS_P1;SDS_P2;PMS_P1;PMS_P2;Temp;Humidity;BMP_temperature;BMP_pressure;BME280_temperature;BME280_humidity;BME280_pressure;Samples;Min_cycle;Max_cycle;Signal;HPM_P1;HPM_P2
2022/09/10 00:00:00;;;;;;;2.67;1.20;;;18.60;99.90;;;;;;5092919;28;20044;-85
2022/09/10 00:02:25;;;;;;;3.28;0.93;;;18.40;99.90;;;;;;5093162;28;20120;-86
2022/09/10 00:04:51;;;;;;;3.65;1.23;;;18.40;99.90;;;;;;5092741;28;20020;-85
2022/09/10 00:07:17;;;;;;;2.58;1.30;;;18.40;99.90;;;;;;5092911;28;20036;-85
2022/09/10 00:09:43;;;;;;;3.03;1.08;;;18.40;99.90;;;;;;5092753;28;20024;-85
2022/09/10 00:12:09;;;;;;;4.57;1.30;;;18.50;99.90;;;;;;5092224;28;20483;-85
2022/09/10 00:14:35;;;;;;;2.40;1.25;;;18.40;99.90;;;;;;5093281;28;20042;-85
2022/09/10 00:17:02;;;;;;;3.30;1.20;;;18.60;99.90;;;;;;5092403;28;20028;-84
2022/09/10 00:19:30;;;;;;;1.95;1.13;;;18.60;99.90;;;;;;5092776;28;20024;-84
2022/09/10 00:21:56;;;;;;;2.60;1.20;;;18.60;99.90;;;;;;5092407;28;20034;-84
2022/09/10 00:24:21;;;;;;;3.35;1.35;;;18.70;99.90;;;;;;5092578;28;20028;-85
2022/09/10 00:26:47;;;;;;;1.50;1.25;;;18.60;99.90;;;;;;5092339;28;20448;-85
2022/09/10 00:29:16;;;;;;;3.33;1.20;;;18.80;99.90;;;;;;5092399;28;20480;-85
2022/09/10 00:31:42;;;;;;;3.10;1.48;;;18.80;99.90;;;;;;5092458;28;20097;-85
2022/09/10 00:34:10;;;;;;;2.83;1.10;;;18.70;99.90;;;;;;5092400;28;20032;-85
2022/09/10 00:36:39;;;;;;;3.53;1.27;;;18.60;99.90;;;;;;5092474;28;20020;-85
2022/09/10 00:39:08;;;;;;;2.30;1.17;;;18.60;99.90;;;;;;5092456;28;20076;-85
2022/09/10 00:41:36;;;;;;;3.13;1.30;;;18.50;99.90;;;;;;5091864;28;20028;-84
2022/09/10 00:44:05;;;;;;;2.30;1.13;;;18.40;99.90;;;;;;5092388;28;20066;-85
2022/09/10 00:46:49;;;;;;;2.92;1.40;;;18.30;99.90;;;;;;5092562;28;20024;-85
2022/09/10 00:49:30;;;;;;;1.42;0.98;;;18.40;99.90;;;;;;5092680;28;20028;-85
2022/09/10 00:51:56;;;;;;;4.07;1.30;;;18.20;99.90;;;;;;5092460;28;20028;-84
2022/09/10 00:54:25;;;;;;;4.00;1.23;;;18.10;99.90;;;;;;5092240;28;20020;-84
2022/09/10 00:56:54;;;;;;;4.32;1.48;;;18.10;99.90;;;;;;5092457;28;20066;-85
2022/09/10 00:59:22;;;;;;;2.53;1.20;;;18.00;99.90;;;;;;5092180;28;20156;-85
2022/09/10 01:01:48;;;;;;;2.65;1.02;;;18.00;99.90;;;;;;5092032;28;20089;-85
2022/09/10 01:04:14;;;;;;;2.97;1.08;;;17.90;99.90;;;;;;5092048;28;20028;-84
2022/09/10 01:06:44;;;;;;;2.90;1.20;;;17.80;99.90;;;;;;5092275;28;20100;-84
2022/09/10 01:09:11;;;;;;;3.60;1.20;;;17.70;99.90;;;;;;5092080;28;20028;-85
2022/09/10 01:12:01;;;;;;;3.15;1.10;;;17.60;99.90;;;;;;5092327;28;20078;-85
2022/09/10 01:14:44;;;;;;;4.10;1.20;;;17.50;99.90;;;;;;5091889;28;20054;-85
2022/09/10 01:17:12;;;;;;;2.80;1.33;;;17.50;99.90;;;;;;5091752;28;20035;-85
2022/09/10 01:20:15;;;;;;;4.55;1.20;;;17.60;99.90;;;;;;5092089;28;20028;-84
2022/09/10 01:22:46;;;;;;;3.25;1.20;;;17.60;99.90;;;;;;5092188;28;20036;-85
2022/09/10 01:25:27;;;;;;;3.30;1.17;;;17.50;99.90;;;;;;5091130;28;20035;-85
2022/09/10 01:27:56;;;;;;;2.63;1.10;;;17.60;99.90;;;;;;5091980;28;20035;-84
2022/09/10 01:30:40;;;;;;;4.18;1.42;;;17.50;99.90;;;;;;5091625;28;20016;-85
2022/09/10 01:33:23;;;;;;;2.03;1.10;;;17.40;99.90;;;;;;5093033;28;20024;-85
2022/09/10 01:35:51;;;;;;;2.42;1.40;;;17.40;99.90;;;;;;5077790;28;20059;-85
2022/09/10 01:38:25;;;;;;;2.20;1.15;;;17.40;99.90;;;;;;5095312;28;20637;-85
2022/09/10 01:40:53;;;;;;;3.00;1.13;;;17.30;99.90;;;;;;5095716;28;20491;-84
2022/09/10 01:43:21;;;;;;;2.53;1.23;;;17.40;99.90;;;;;;5095568;28;20028;-85
2022/09/10 01:46:04;;;;;;;5.70;1.25;;;17.40;99.90;;;;;;5095465;28;20020;-85
2022/09/10 01:48:54;;;;;;;2.95;1.30;;;17.40;99.90;;;;;;5095282;28;20381;-85
2022/09/10 01:51:45;;;;;;;1.75;1.25;;;17.40;99.90;;;;;;5095320;28;20032;-84
2022/09/10 01:54:24;;;;;;;1.85;1.23;;;17.40;99.90;;;;;;5095061;28;20024;-84
2022/09/10 01:57:16;;;;;;;3.63;1.45;;;17.30;99.90;;;;;;5095311;28;20036;-85
2022/09/10 01:59:56;;;;;;;3.58;1.33;;;17.30;99.90;;;;;;5095025;28;20031;-84
2022/09/10 02:02:28;;;;;;;2.95;1.50;;;17.30;99.90;;;;;;5095072;28;20365;-85
2022/09/10 02:04:55;;;;;;;2.35;1.20;;;17.30;99.90;;;;;;5095377;28;20544;-85
2022/09/10 02:07:23;;;;;;;3.47;1.25;;;17.30;99.90;;;;;;5094878;28;20027;-85
2022/09/10 02:09:49;;;;;;;2.78;1.13;;;17.30;99.90;;;;;;5094605;28;20124;-85
2022/09/10 02:12:20;;;;;;;5.68;1.40;;;17.20;99.90;;;;;;5094357;28;20381;-85
2022/09/10 02:14:50;;;;;;;4.38;1.58;;;17.20;99.90;;;;;;5094985;28;20028;-85
2022/09/10 02:17:17;;;;;;;2.65;1.17;;;17.20;99.90;;;;;;5095159;28;20020;-84
2022/09/10 02:19:46;;;;;;;4.18;1.40;;;17.10;99.90;;;;;;5094994;28;20024;-85
2022/09/10 02:22:14;;;;;;;2.17;1.30;;;17.20;99.90;;;;;;5094392;28;20385;-85
2022/09/10 02:24:40;;;;;;;2.08;1.20;;;17.10;99.90;;;;;;5095250;28;20022;-84
2022/09/10 02:27:06;;;;;;;3.88;1.60;;;17.20;99.90;;;;;;5094159;28;20032;-85
2022/09/10 02:29:33;;;;;;;2.67;1.38;;;17.10;99.90;;;;;;5095106;28;20017;-85
2022/09/10 02:31:58;;;;;;;2.92;1.33;;;17.10;99.90;;;;;;5094559;28;20042;-84
2022/09/10 02:34:25;;;;;;;3.15;1.20;;;17.10;99.90;;;;;;5094454;28;20048;-85
2022/09/10 02:36:51;;;;;;;1.92;1.25;;;17.00;99.90;;;;;;5094138;28;20541;-85
2022/09/10 02:39:16;;;;;;;2.38;1.60;;;17.00;99.90;;;;;;5094618;28;20169;-85
2022/09/10 02:41:42;;;;;;;4.55;1.40;;;16.90;99.90;;;;;;5094578;28;20472;-84
2022/09/10 02:44:08;;;;;;;2.38;1.40;;;16.80;99.90;;;;;;5093894;28;20491;-85
2022/09/10 02:46:33;;;;;;;3.03;1.40;;;16.90;99.90;;;;;;5094447;28;20028;-85
2022/09/10 02:48:59;;;;;;;5.65;1.38;;;16.80;99.90;;;;;;5094179;28;20064;-84
2022/09/10 02:51:25;;;;;;;3.70;1.58;;;16.80;99.90;;;;;;5094241;28;20020;-85
2022/09/10 02:53:50;;;;;;;3.15;1.20;;;16.70;99.90;;;;;;5094235;28;20031;-84
2022/09/10 02:56:18;;;;;;;3.72;1.48;;;16.60;99.90;;;;;;5094038;28;20107;-85
2022/09/10 02:58:44;;;;;;;3.15;1.35;;;16.50;99.90;;;;;;5094225;28;20032;-84
2022/09/10 03:01:17;;;;;;;2.03;1.52;;;16.50;99.90;;;;;;5093953;28;20626;-85
2022/09/10 03:03:42;;;;;;;4.63;1.38;;;16.60;99.90;;;;;;5093920;28;20063;-84
2022/09/10 03:06:08;;;;;;;2.58;1.23;;;16.60;99.90;;;;;;5093788;28;20047;-84
2022/09/10 03:08:34;;;;;;;3.92;1.55;;;16.50;99.90;;;;;;5094467;28;20066;-84
2022/09/10 03:11:00;;;;;;;4.53;1.58;;;16.50;99.90;;;;;;5093802;28;20024;-84
2022/09/10 03:13:27;;;;;;;4.65;1.60;;;16.60;99.90;;;;;;5093780;28;20032;-85
2022/09/10 03:15:54;;;;;;;3.50;1.65;;;16.60;99.90;;;;;;5093780;28;20012;-84
2022/09/10 03:18:21;;;;;;;3.97;1.58;;;16.50;99.90;;;;;;5093833;28;20020;-84
2022/09/10 03:20:48;;;;;;;2.83;1.48;;;16.50;99.90;;;;;;5093657;28;20032;-84
2022/09/10 03:23:14;;;;;;;3.42;1.50;;;16.50;99.90;;;;;;5093534;28;20059;-84
2022/09/10 03:25:40;;;;;;;2.70;1.25;;;16.40;99.90;;;;;;5093598;28;20121;-84
2022/09/10 03:28:05;;;;;;;3.45;1.30;;;16.40;99.90;;;;;;5093572;28;20023;-84
2022/09/10 03:30:31;;;;;;;2.30;1.33;;;16.50;99.90;;;;;;5093658;28;20488;-85
2022/09/10 03:32:57;;;;;;;2.38;1.40;;;16.30;99.90;;;;;;5093748;28;20052;-84
2022/09/10 03:35:23;;;;;;;2.60;1.52;;;16.30;99.90;;;;;;5093187;28;20441;-84
2022/09/10 03:37:49;;;;;;;3.97;1.52;;;16.20;99.90;;;;;;5093267;28;20027;-84
2022/09/10 03:40:14;;;;;;;5.05;1.65;;;16.20;99.90;;;;;;5093634;28;20427;-84
2022/09/10 03:42:41;;;;;;;4.70;1.65;;;16.20;99.90;;;;;;5093112;28;20028;-84
2022/09/10 03:45:09;;;;;;;2.90;1.50;;;16.20;99.90;;;;;;5093207;28;20028;-84
2022/09/10 03:47:38;;;;;;;2.63;1.50;;;16.20;99.90;;;;;;5093140;28;20111;-84
2022/09/10 03:50:05;;;;;;;4.50;1.60;;;16.00;99.90;;;;;;5092856;28;20043;-84
2022/09/10 03:52:30;;;;;;;2.47;1.40;;;16.00;99.90;;;;;;5093183;28;20020;-83
2022/09/10 03:54:56;;;;;;;2.13;1.42;;;16.00;99.90;;;;;;5074475;28;20105;-84
2022/09/10 03:57:22;;;;;;;5.78;1.50;;;16.00;99.90;;;;;;5092503;28;20032;-84
2022/09/10 03:59:48;;;;;;;3.58;1.58;;;16.00;99.90;;;;;;5092899;28;20024;-84
2022/09/10 04:02:15;;;;;;;3.60;1.60;;;16.00;99.90;;;;;;5093269;28;20036;-84
2022/09/10 04:04:41;;;;;;;2.75;1.42;;;16.00;99.90;;;;;;5092618;28;20024;-84
2022/09/10 04:07:09;;;;;;;4.15;1.45;;;15.90;99.90;;;;;;5092928;28;20028;-84
2022/09/10 04:09:34;;;;;;;6.30;1.48;;;15.90;99.90;;;;;;5092856;28;20384;-84
2022/09/10 04:12:01;;;;;;;6.22;1.70;;;15.80;99.90;;;;;;5093219;28;20020;-84
2022/09/10 04:14:28;;;;;;;4.50;1.48;;;15.80;99.90;;;;;;5092856;28;20182;-84
2022/09/10 04:16:56;;;;;;;3.88;1.65;;;15.70;99.90;;;;;;5093051;28;20036;-84
2022/09/10 04:19:21;;;;;;;3.45;1.40;;;15.70;99.90;;;;;;5093054;28;20059;-84
2022/09/10 04:21:47;;;;;;;3.10;1.42;;;15.70;99.90;;;;;;5092408;28;20117;-84
2022/09/10 04:24:13;;;;;;;3.55;1.70;;;15.70;99.90;;;;;;5092408;28;20380;-85
2022/09/10 04:26:38;;;;;;;5.38;1.40;;;15.70;99.90;;;;;;5092441;28;20028;-84
2022/09/10 04:29:04;;;;;;;2.20;1.58;;;15.70;99.90;;;;;;5092476;28;20032;-84
2022/09/10 04:31:30;;;;;;;2.70;1.35;;;15.70;99.90;;;;;;5071965;28;20043;-84
2022/09/10 04:33:55;;;;;;;4.47;1.35;;;15.50;99.90;;;;;;5072349;28;20518;-84
2022/09/10 04:36:21;;;;;;;4.07;1.75;;;15.60;99.90;;;;;;5072112;28;20066;-84
2022/09/10 04:38:46;;;;;;;2.70;1.20;;;15.50;99.90;;;;;;5072082;28;20501;-84
2022/09/10 04:41:14;;;;;;;3.85;1.52;;;15.50;99.90;;;;;;5072110;28;20032;-84
2022/09/10 04:43:40;;;;;;;3.50;1.70;;;15.50;99.90;;;;;;5072465;28;20040;-84
2022/09/10 04:46:06;;;;;;;3.53;1.67;;;15.30;99.90;;;;;;5070826;28;20153;-84
2022/09/10 04:48:33;;;;;;;5.20;1.40;;;15.40;99.90;;;;;;5053816;28;20019;-84
2022/09/10 04:50:59;;;;;;;2.42;1.67;;;15.40;99.90;;;;;;5071977;28;20020;-84
2022/09/10 04:53:26;;;;;;;3.28;1.70;;;15.50;99.90;;;;;;5072015;28;20021;-84
2022/09/10 04:55:54;;;;;;;4.15;1.52;;;15.50;99.90;;;;;;5072145;28;20108;-84
2022/09/10 04:58:20;;;;;;;4.03;1.48;;;15.50;99.90;;;;;;5071322;28;20025;-85
2022/09/10 05:00:46;;;;;;;2.13;1.27;;;15.50;99.90;;;;;;5071944;28;20036;-84
2022/09/10 05:03:12;;;;;;;6.95;1.65;;;15.40;99.90;;;;;;5071472;28;20628;-84
2022/09/10 05:05:38;;;;;;;3.20;1.20;;;15.30;99.90;;;;;;5071819;28;20079;-84
2022/09/10 05:08:07;;;;;;;2.67;1.42;;;15.30;99.90;;;;;;5074597;28;20162;-84
2022/09/10 05:10:35;;;;;;;4.45;1.40;;;15.40;99.90;;;;;;5076157;28;20059;-84
2022/09/10 05:13:01;;;;;;;5.38;1.42;;;15.50;99.90;;;;;;5075639;28;20028;-84
2022/09/10 05:15:27;;;;;;;3.58;1.60;;;15.40;99.90;;;;;;5078210;28;20047;-84
2022/09/10 05:17:52;;;;;;;2.75;1.38;;;15.40;99.90;;;;;;5095679;28;20383;-84
2022/09/10 05:20:18;;;;;;;3.42;1.27;;;15.40;99.90;;;;;;5095939;28;20016;-84
2022/09/10 05:22:44;;;;;;;4.10;1.42;;;15.50;99.90;;;;;;5095778;28;20028;-84
2022/09/10 05:25:09;;;;;;;4.43;1.60;;;15.50;99.90;;;;;;5095770;28;20038;-84
2022/09/10 05:27:35;;;;;;;2.28;1.38;;;15.50;99.90;;;;;;5096241;28;20019;-84
2022/09/10 05:30:01;;;;;;;2.40;1.40;;;15.50;99.90;;;;;;5095743;28;20036;-84
2022/09/10 05:32:27;;;;;;;2.13;1.40;;;15.50;99.90;;;;;;5095124;28;20571;-84
2022/09/10 05:34:53;;;;;;;4.60;1.40;;;15.50;99.90;;;;;;5095489;28;20518;-84
2022/09/10 05:37:19;;;;;;;2.47;1.40;;;15.70;99.90;;;;;;5095921;28;20020;-84
2022/09/10 05:39:47;;;;;;;3.88;1.50;;;15.60;99.90;;;;;;5095611;28;20076;-84
2022/09/10 05:42:13;;;;;;;6.25;2.05;;;15.60;99.90;;;;;;5095420;28;20031;-85
2022/09/10 05:44:40;;;;;;;3.42;1.60;;;15.50;99.90;;;;;;5094741;28;20046;-86
2022/09/10 05:47:06;;;;;;;3.70;1.70;;;15.60;99.90;;;;;;5095879;28;20402;-86
2022/09/10 05:49:31;;;;;;;3.03;1.45;;;15.60;99.90;;;;;;5094743;28;20024;-85
2022/09/10 05:51:57;;;;;;;3.00;1.48;;;15.70;99.90;;;;;;5095374;28;20031;-87
2022/09/10 05:54:23;;;;;;;4.55;1.60;;;15.70;99.90;;;;;;5095333;28;20027;-86
2022/09/10 05:56:48;;;;;;;4.88;1.48;;;15.80;99.90;;;;;;5095298;28;20392;-87
2022/09/10 05:59:14;;;;;;;4.18;1.60;;;15.80;99.90;;;;;;5094878;28;20035;-87
2022/09/10 06:01:39;;;;;;;4.53;1.70;;;15.80;99.90;;;;;;5095125;28;20028;-88
2022/09/10 06:04:05;;;;;;;3.63;1.35;;;15.90;99.90;;;;;;5077161;28;20392;-91
2022/09/10 06:06:30;;;;;;;4.65;1.38;;;16.10;99.90;;;;;;5077655;28;20107;-89
2022/09/10 06:08:56;;;;;;;2.45;1.50;;;16.20;99.90;;;;;;5095147;28;20077;-88
2022/09/10 06:11:22;;;;;;;2.63;1.35;;;16.20;99.90;;;;;;5095115;28;20092;-87
2022/09/10 06:13:49;;;;;;;3.58;1.40;;;16.30;99.90;;;;;;5076810;28;20373;-87
2022/09/10 06:16:15;;;;;;;3.53;1.50;;;16.30;99.90;;;;;;5094637;28;20356;-88
2022/09/10 06:18:41;;;;;;;3.50;1.30;;;16.40;99.90;;;;;;5093809;28;20028;-87
2022/09/10 06:21:11;;;;;;;4.38;1.52;;;16.40;99.90;;;;;;5094959;28;20024;-87
2022/09/10 06:23:40;;;;;;;3.63;1.40;;;16.60;99.90;;;;;;5094848;28;20101;-88
2022/09/10 06:26:09;;;;;;;4.00;1.20;;;16.50;99.90;;;;;;5094691;28;20245;-88
2022/09/10 06:28:35;;;;;;;6.13;1.48;;;16.50;99.90;;;;;;5094372;28;20028;-87
2022/09/10 06:31:03;;;;;;;3.45;1.40;;;16.50;99.90;;;;;;5094252;28;20036;-87
2022/09/10 06:33:29;;;;;;;5.30;1.70;;;16.70;99.90;;;;;;5094343;28;20028;-88
2022/09/10 06:35:56;;;;;;;6.22;1.42;;;16.60;99.90;;;;;;5094637;28;20062;-88
2022/09/10 06:38:23;;;;;;;8.13;1.70;;;16.60;99.90;;;;;;5094991;28;20016;-87
2022/09/10 06:40:53;;;;;;;5.05;1.20;;;16.60;99.90;;;;;;5094477;28;20388;-88
2022/09/10 06:43:20;;;;;;;2.28;1.40;;;16.70;99.90;;;;;;5093365;28;20521;-85
2022/09/10 06:45:46;;;;;;;5.65;1.50;;;16.80;99.90;;;;;;5094074;28;20028;-87
2022/09/10 06:48:11;;;;;;;4.70;1.50;;;17.20;99.90;;;;;;5094293;28;20119;-87
2022/09/10 06:50:37;;;;;;;2.72;1.30;;;17.50;99.90;;;;;;5075553;28;20032;-88
2022/09/10 06:53:03;;;;;;;4.70;1.20;;;17.80;99.90;;;;;;5075871;28;20032;-87
2022/09/10 06:55:28;;;;;;;3.85;1.25;;;17.90;99.90;;;;;;5094187;28;20078;-86
2022/09/10 06:57:54;;;;;;;4.93;1.40;;;18.00;99.90;;;;;;5093107;28;20024;-87
2022/09/10 07:00:20;;;;;;;6.75;1.70;;;17.80;99.90;;;;;;5075275;28;20020;-87
2022/09/10 07:02:45;;;;;;;6.50;1.42;;;17.70;99.90;;;;;;5097546;28;20024;-87
2022/09/10 07:05:11;;;;;;;5.22;1.80;;;17.90;99.90;;;;;;5105210;28;20070;-87
2022/09/10 07:07:36;;;;;;;4.78;1.45;;;17.90;99.90;;;;;;5093878;28;20031;-88
2022/09/10 07:10:02;;;;;;;4.07;1.30;;;17.60;99.90;;;;;;5107674;28;20031;-87
2022/09/10 07:12:28;;;;;;;4.28;1.60;;;17.50;99.90;;;;;;5115195;28;20095;-87
2022/09/10 07:14:54;;;;;;;2.92;1.73;;;17.10;99.90;;;;;;5115120;28;20484;-86
2022/09/10 07:17:19;;;;;;;5.07;1.80;;;17.40;99.90;;;;;;5078559;28;20032;-87
2022/09/10 07:19:45;;;;;;;4.78;1.90;;;17.40;99.90;;;;;;5094180;28;20051;-87
2022/09/10 07:22:11;;;;;;;2.85;1.67;;;17.40;99.90;;;;;;5102723;28;20028;-87
2022/09/10 07:24:36;;;;;;;4.97;2.00;;;17.60;99.90;;;;;;5115070;28;20108;-87
2022/09/10 07:27:02;;;;;;;4.75;1.95;;;17.70;99.90;;;;;;5114156;28;20119;-87
2022/09/10 07:29:30;;;;;;;7.82;1.90;;;17.90;99.90;;;;;;5098478;28;20381;-87
2022/09/10 07:31:55;;;;;;;3.53;1.67;;;17.70;99.90;;;;;;5092624;28;20138;-87
2022/09/10 07:34:22;;;;;;;2.72;1.40;;;17.70;99.90;;;;;;5092944;28;20535;-87
2022/09/10 07:36:48;;;;;;;3.70;1.40;;;17.60;99.90;;;;;;5092535;28;20031;-87
2022/09/10 07:39:13;;;;;;;3.00;1.45;;;17.70;99.90;;;;;;5093982;28;20024;-87
2022/09/10 07:41:39;;;;;;;4.68;1.50;;;17.90;99.90;;;;;;5092586;28;20077;-87
2022/09/10 07:44:04;;;;;;;5.63;1.50;;;17.70;99.90;;;;;;5092604;28;20054;-87
2022/09/10 07:46:30;;;;;;;3.47;1.50;;;18.40;99.90;;;;;;5100941;28;20095;-86
2022/09/10 07:48:58;;;;;;;5.43;1.50;;;18.50;99.90;;;;;;5111848;28;20042;-86
2022/09/10 07:51:25;;;;;;;5.72;1.52;;;18.20;99.90;;;;;;5099341;28;20036;-87
2022/09/10 07:53:56;;;;;;;3.33;1.30;;;18.30;99.90;;;;;;5092725;28;20024;-86
2022/09/10 07:56:22;;;;;;;3.08;1.45;;;18.30;99.90;;;;;;5092552;28;20571;-87
2022/09/10 07:58:48;;;;;;;6.50;1.77;;;18.50;99.90;;;;;;5092651;28;20024;-87
2022/09/10 08:01:14;;;;;;;5.07;1.35;;;18.70;99.90;;;;;;5103671;28;20031;-87
2022/09/10 08:03:40;;;;;;;2.53;1.52;;;19.10;99.90;;;;;;5112785;28;20463;-87
2022/09/10 08:06:08;;;;;;;5.15;1.90;;;19.40;99.90;;;;;;5113146;28;20514;-87
2022/09/10 08:08:36;;;;;;;6.03;1.58;;;19.70;99.90;;;;;;5113208;28;20106;-87
2022/09/10 08:11:11;;;;;;;5.68;1.42;;;19.70;99.90;;;;;;5093467;28;20024;-87
2022/09/10 08:13:38;;;;;;;5.45;1.25;;;19.90;99.90;;;;;;5094285;28;20019;-85
2022/09/10 08:16:08;;;;;;;5.03;1.60;;;20.00;99.90;;;;;;5105316;28;20038;-85
2022/09/10 08:18:35;;;;;;;4.25;1.20;;;20.10;99.90;;;;;;5092570;28;20024;-84
2022/09/10 08:21:01;;;;;;;2.25;1.33;;;20.20;99.90;;;;;;5092114;28;20035;-85
2022/09/10 08:23:28;;;;;;;4.55;1.30;;;20.20;99.90;;;;;;5092650;28;20499;-84
2022/09/10 08:25:54;;;;;;;3.70;1.50;;;20.40;99.90;;;;;;5092633;28;20031;-85
2022/09/10 08:28:21;;;;;;;2.55;1.27;;;20.30;99.90;;;;;;5092668;28;20027;-84
2022/09/10 08:31:06;;;;;;;4.28;1.20;;;20.50;99.90;;;;;;5074044;28;20395;-85
2022/09/10 08:33:38;;;;;;;5.93;1.35;;;20.50;99.90;;;;;;5092150;28;20407;-84
2022/09/10 08:36:09;;;;;;;3.55;1.05;;;20.70;99.90;;;;;;5091184;28;20548;-85
2022/09/10 08:38:38;;;;;;;3.47;0.95;;;20.80;99.90;;;;;;5092217;28;20028;-84
2022/09/10 08:41:13;;;;;;;4.60;1.10;;;21.00;99.90;;;;;;5092628;28;20036;-85
2022/09/10 08:43:53;;;;;;;6.03;1.15;;;20.80;99.90;;;;;;5092019;28;20078;-84
2022/09/10 08:46:28;;;;;;;2.97;1.00;;;21.00;99.90;;;;;;5092258;28;20472;-84
2022/09/10 08:49:12;;;;;;;7.00;1.40;;;20.90;99.90;;;;;;5092266;28;20099;-85
2022/09/10 08:52:02;;;;;;;3.80;1.20;;;20.70;99.90;;;;;;5092746;28;20498;-84
2022/09/10 08:54:39;;;;;;;4.80;1.08;;;21.00;99.90;;;;;;5091419;28;20043;-84
2022/09/10 08:57:10;;;;;;;5.50;1.20;;;21.10;99.90;;;;;;5092224;28;20048;-85
2022/09/10 08:59:44;;;;;;;3.15;1.00;;;21.00;99.90;;;;;;5092222;28;20050;-84
2022/09/10 09:02:28;;;;;;;4.50;0.95;;;20.80;99.90;;;;;;5091892;28;20373;-84
2022/09/10 09:04:59;;;;;;;4.90;1.10;;;20.90;99.90;;;;;;5092222;28;20437;-85
2022/09/10 09:07:36;;;;;;;5.75;1.33;;;21.40;99.90;;;;;;5092178;28;20103;-84
2022/09/10 09:10:04;;;;;;;4.03;1.05;;;22.10;99.90;;;;;;5092580;28;20028;-84
2022/09/10 09:12:41;;;;;;;3.28;1.15;;;23.00;99.90;;;;;;5091788;28;20417;-84
2022/09/10 09:15:29;;;;;;;3.92;1.05;;;22.50;99.90;;;;;;5092061;28;20024;-85
2022/09/10 09:18:19;;;;;;;3.45;0.85;;;22.20;99.90;;;;;;5092344;28;20747;-84
2022/09/10 09:20:50;;;;;;;2.50;0.82;;;22.40;99.90;;;;;;5092363;28;20020;-84
2022/09/10 09:23:26;;;;;;;4.75;0.98;;;22.60;99.90;;;;;;5091622;28;20040;-84
2022/09/10 09:26:08;;;;;;;3.15;1.00;;;22.40;99.90;;;;;;5092013;28;20024;-85
2022/09/10 09:28:45;;;;;;;2.15;1.00;;;22.10;99.90;;;;;;5092199;28;20039;-84
2022/09/10 09:31:21;;;;;;;3.15;1.08;;;21.90;99.90;;;;;;5091581;28;20024;-85
2022/09/10 09:33:47;;;;;;;7.20;1.33;;;21.60;99.90;;;;;;5091928;28;20488;-84
2022/09/10 09:36:18;;;;;;;4.15;1.13;;;21.40;99.90;;;;;;5091950;28;20032;-85
2022/09/10 09:38:48;;;;;;;3.42;1.23;;;21.20;99.90;;;;;;5091476;28;20380;-85
2022/09/10 09:41:17;;;;;;;4.20;0.98;;;21.30;99.90;;;;;;5091996;28;20037;-84
2022/09/10 09:44:10;;;;;;;3.33;0.98;;;21.40;99.90;;;;;;5091815;28;20043;-84
2022/09/10 09:46:37;;;;;;;1.60;0.70;;;21.60;99.90;;;;;;5091678;28;20472;-85
2022/09/10 09:49:03;;;;;;;3.55;0.88;;;22.40;99.90;;;;;;5091780;28;20028;-84
2022/09/10 09:51:34;;;;;;;3.83;0.93;;;32.20;99.90;;;;;;5091240;28;20476;-85
2022/09/10 09:54:07;;;;;;;3.33;1.17;;;33.30;99.90;;;;;;5092920;28;20027;-85
2022/09/10 09:56:44;;;;;;;4.38;0.88;;;34.90;99.90;;;;;;5095542;28;20024;-85
2022/09/10 09:59:28;;;;;;;2.67;0.90;;;34.00;99.90;;;;;;5095429;28;20027;-85
2022/09/10 10:02:24;;;;;;;4.10;1.10;;;30.90;99.90;;;;;;5095224;28;20032;-85
2022/09/10 10:05:24;;;;;;;2.90;1.00;;;35.00;99.90;;;;;;5095405;28;20395;-85
2022/09/10 10:07:49;;;;;;;3.83;0.95;;;35.90;99.90;;;;;;5094677;28;20496;-85
2022/09/10 10:10:24;;;;;;;2.78;0.93;;;35.10;99.90;;;;;;5095527;28;20066;-85
2022/09/10 10:12:52;;;;;;;2.72;0.90;;;32.80;99.90;;;;;;5094960;28;20023;-85
2022/09/10 10:15:35;;;;;;;3.97;1.33;;;33.20;99.90;;;;;;5094844;28;20494;-84
2022/09/10 10:18:20;;;;;;;3.38;0.80;;;31.20;99.90;;;;;;5094945;28;20032;-85
2022/09/10 10:21:07;;;;;;;3.75;0.80;;;29.00;99.90;;;;;;5094333;28;20020;-85
2022/09/10 10:23:37;;;;;;;5.43;0.95;;;27.90;99.90;;;;;;5094753;28;20040;-85
2022/09/10 10:26:16;;;;;;;2.50;0.90;;;26.80;99.90;;;;;;5094981;28;20031;-85
2022/09/10 10:28:46;;;;;;;2.65;0.77;;;26.40;99.90;;;;;;5095323;28;20024;-85
2022/09/10 10:31:13;;;;;;;2.55;0.80;;;27.50;99.90;;;;;;5094839;28;20492;-85
2022/09/10 10:34:16;;;;;;;4.40;1.00;;;28.20;99.90;;;;;;5095137;28;20388;-84
2022/09/10 10:37:00;;;;;;;3.25;0.90;;;27.20;99.90;;;;;;5012406;28;20117;-85
2022/09/10 10:39:53;;;;;;;5.07;1.08;;;25.70;99.90;;;;;;5012759;28;20026;-85
2022/09/10 10:42:28;;;;;;;1.73;0.85;;;25.10;99.90;;;;;;5012323;28;20030;-85
2022/09/10 10:45:09;;;;;;;2.67;0.77;;;24.80;99.90;;;;;;5012535;28;20061;-85
2022/09/10 10:47:54;;;;;;;4.47;1.02;;;24.50;99.90;;;;;;5012215;28;20084;-85
2022/09/10 10:50:22;;;;;;;4.22;0.93;;;24.10;99.90;;;;;;5011641;28;20490;-84
2022/09/10 10:53:18;;;;;;;2.83;0.95;;;23.80;99.90;;;;;;5012648;28;20085;-85
2022/09/10 10:55:52;;;;;;;3.47;1.00;;;23.50;99.90;;;;;;4973381;28;20423;-85
2022/09/10 10:58:23;;;;;;;3.72;1.20;;;23.10;99.90;;;;;;4973087;28;20031;-84
2022/09/10 11:01:30;;;;;;;3.40;1.83;;;23.00;99.90;;;;;;4973001;28;20058;-84
2022/09/10 11:04:12;;;;;;;3.75;1.10;;;23.40;99.90;;;;;;4969567;28;20406;-85
2022/09/10 11:06:47;;;;;;;6.28;1.10;;;25.90;99.90;;;;;;4972553;28;20046;-85
2022/09/10 11:09:21;;;;;;;2.45;1.30;;;33.00;99.90;;;;;;4972845;28;20030;-85
2022/09/10 11:11:51;;;;;;;2.78;1.00;;;32.80;99.90;;;;;;4973217;28;20034;-85
2022/09/10 11:14:31;;;;;;;5.18;1.17;;;29.60;99.90;;;;;;4989101;28;20046;-85
2022/09/10 11:17:09;;;;;;;2.85;0.85;;;27.70;99.90;;;;;;4991955;28;20512;-85
2022/09/10 11:20:09;;;;;;;4.03;1.20;;;26.70;99.90;;;;;;4991785;28;20057;-85
2022/09/10 11:22:42;;;;;;;2.65;0.70;;;31.20;99.90;;;;;;4975445;28;20038;-86
2022/09/10 11:25:28;;;;;;;3.53;1.05;;;35.30;99.90;;;;;;4992297;28;20022;-86
2022/09/10 11:28:05;;;;;;;1.65;0.70;;;31.20;99.90;;;;;;4991937;28;20039;-86
2022/09/10 11:30:33;;;;;;;2.55;0.80;;;33.20;99.90;;;;;;4991800;28;20486;-85
2022/09/10 11:33:10;;;;;;;2.70;0.65;;;36.70;99.90;;;;;;5044384;28;20071;-87
2022/09/10 11:35:49;;;;;;;2.03;0.65;;;38.50;99.90;;;;;;5073679;28;20420;-88
2022/09/10 11:38:24;;;;;;;1.20;0.60;;;32.60;99.90;;;;;;5073384;28;20028;-86
2022/09/10 11:41:17;;;;;;;2.72;0.60;;;29.80;99.90;;;;;;5073241;28;20122;-89
2022/09/10 11:44:26;;;;;;;1.23;0.50;;;28.10;99.90;;;;;;5073145;28;20037;-87
2022/09/10 11:47:10;;;;;;;1.70;0.70;;;35.00;99.90;;;;;;5073204;28;20028;-87
2022/09/10 11:50:09;;;;;;;2.78;0.82;;;39.00;99.90;;;;;;5072904;28;20144;-87
2022/09/10 11:52:34;;;;;;;2.60;1.48;;;34.60;99.90;;;;;;5073062;28;20131;-87
2022/09/10 11:55:07;;;;;;;3.58;2.22;;;31.90;99.90;;;;;;5073771;28;20063;-86
2022/09/10 11:57:59;;;;;;;3.45;1.80;;;29.70;99.90;;;;;;5074817;28;20085;-86
2022/09/10 12:00:30;;;;;;;2.22;1.58;;;29.70;99.90;;;;;;5074383;28;20032;-86
2022/09/10 12:03:14;;;;;;;1.73;1.10;;;35.70;99.90;;;;;;5073412;28;20021;-87
2022/09/10 12:06:03;;;;;;;2.47;1.27;;;38.70;99.90;;;;;;5071716;28;20063;-86
2022/09/10 12:09:12;;;;;;;2.47;0.90;;;34.70;99.90;;;;;;5073021;28;20552;-86
2022/09/10 12:11:42;;;;;;;1.83;0.90;;;33.90;99.90;;;;;;5072428;28;20029;-87
2022/09/10 12:14:15;;;;;;;2.97;0.90;;;34.10;99.90;;;;;;5072776;28;20429;-87
2022/09/10 12:16:52;;;;;;;2.40;0.60;;;32.20;99.90;;;;;;5084689;28;20047;-86
2022/09/10 12:19:29;;;;;;;5.78;4.68;;;33.40;99.90;;;;;;5092795;28;20089;-86
2022/09/10 12:22:02;;;;;;;4.90;4.30;;;33.80;99.90;;;;;;5092559;28;20035;-86
2022/09/10 12:24:38;;;;;;;2.67;0.80;;;36.60;99.90;;;;;;5092575;28;20495;-87
2022/09/10 12:27:05;;;;;;;2.47;1.05;;;37.50;99.90;;;;;;5093068;28;20030;-86
2022/09/10 12:29:32;;;;;;;3.08;1.42;;;35.20;99.90;;;;;;5092538;28;20077;-87
2022/09/10 12:32:14;;;;;;;4.10;0.80;;;32.90;99.90;;;;;;5092219;28;20036;-87
2022/09/10 12:34:40;;;;;;;2.13;0.80;;;35.20;99.90;;;;;;5092639;28;20484;-87
2022/09/10 12:37:19;;;;;;;2.97;0.85;;;36.70;99.90;;;;;;5092810;28;20080;-87
2022/09/10 12:39:45;;;;;;;1.55;0.70;;;35.50;99.90;;;;;;5092461;28;20073;-87
2022/09/10 12:42:29;;;;;;;2.13;0.70;;;32.40;99.90;;;;;;5092497;28;20016;-87
2022/09/10 12:44:55;;;;;;;2.72;0.60;;;30.60;99.90;;;;;;5092542;28;20484;-86
2022/09/10 12:47:41;;;;;;;1.40;0.80;;;31.50;99.90;;;;;;5073823;28;20070;-86
2022/09/10 12:50:20;;;;;;;2.97;1.00;;;30.60;99.90;;;;;;5092480;28;20103;-86
2022/09/10 12:52:49;;;;;;;2.00;0.50;;;34.30;99.90;;;;;;5092754;28;20027;-86
2022/09/10 12:55:58;;;;;;;2.50;0.60;;;33.90;99.90;;;;;;5092514;28;20028;-86
2022/09/10 12:58:39;;;;;;;2.08;0.80;;;30.90;99.90;;;;;;5092354;28;20442;-86
2022/09/10 13:01:13;;;;;;;1.55;0.70;;;29.00;99.90;;;;;;5091731;28;20380;-87
2022/09/10 13:03:51;;;;;;;1.83;0.80;;;28.80;99.90;;;;;;5092234;28;20093;-86
2022/09/10 13:06:17;;;;;;;2.78;0.77;;;28.60;99.90;;;;;;5074113;28;20114;-86
2022/09/10 13:08:46;;;;;;;2.63;0.70;;;30.80;99.90;;;;;;5092515;28;20024;-86